sensor_id;sensor_type;location;lat;lon;timestamp;temperature;humidity
66831;DHT22;53739;44.224;22.528;2022-10-30T00:00:18;307.60;2304.00
66831;DHT22;53739;44.224;22.528;2022-10-30T00:02:47;307.50;2304.00
66831;DHT22;53739;44.224;22.528;2022-10-30T00:05:14;307.40;2304.00
66831;DHT22;53739;44.224;22.528;2022-10-30T00:07:40;307.20;2304.00
66831;DHT22;53739;44.224;22.528;2022-10-30T00:10:06;307.20;2304.00
66831;DHT22;53739;44.224;22.528;2022-10-30T00:12:32;282.50;2252.80
66831;DHT22;53739;44.224;22.528;2022-10-30T00:14:58;282.40;2278.40
66831;DHT22;53739;44.224;22.528;2022-10-30T00:17:24;282.50;2278.40
66831;DHT22;53739;44.224;22.528;2022-10-30T00:19:50;282.50;2278.40
66831;DHT22;53739;44.224;22.528;2022-10-30T00:22:16;307.20;2304.00
66831;DHT22;53739;44.224;22.528;2022-10-30T00:24:42;307.20;2304.00
66831;DHT22;53739;44.224;22.528;2022-10-30T00:27:08;307.20;2304.00
66831;DHT22;53739;44.224;22.528;2022-10-30T00:29:33;282.50;2150.40
66831;DHT22;53739;44.224;22.528;2022-10-30T00:31:59;282.50;2278.40
66831;DHT22;53739;44.224;22.528;2022-10-30T00:34:25;282.50;2278.40
66831;DHT22;53739;44.224;22.528;2022-10-30T00:36:51;282.50;2278.40
66831;DHT22;53739;44.224;22.528;2022-10-30T00:39:17;282.50;2278.40
66831;DHT22;53739;44.224;22.528;2022-10-30T00:41:43;282.50;2278.40
66831;DHT22;53739;44.224;22.528;2022-10-30T00:44:31;282.50;2278.40
66831;DHT22;53739;44.224;22.528;2022-10-30T00:47:00;282.40;2278.40
66831;DHT22;53739;44.224;22.528;2022-10-30T00:49:32;282.40;2278.40
66831;DHT22;53739;44.224;22.528;2022-10-30T00:51:58;282.40;2278.40
66831;DHT22;53739;44.224;22.528;2022-10-30T00:54:25;282.50;2278.40
66831;DHT22;53739;44.224;22.528;2022-10-30T00:56:53;282.50;2278.40
66831;DHT22;53739;44.224;22.528;2022-10-30T00:59:25;282.50;2278.40
66831;DHT22;53739;44.224;22.528;2022-10-30T01:01:53;282.50;2278.40
66831;DHT22;53739;44.224;22.528;2022-10-30T01:04:19;282.50;2278.40
66831;DHT22;53739;44.224;22.528;2022-10-30T01:06:49;282.40;2022.40
66831;DHT22;53739;44.224;22.528;2022-10-30T01:09:18;282.40;2278.40
66831;DHT22;53739;44.224;22.528;2022-10-30T01:11:45;282.40;2278.40
66831;DHT22;53739;44.224;22.528;2022-10-30T01:14:12;282.30;2073.60
66831;DHT22;53739;44.224;22.528;2022-10-30T01:19:33;282.40;2278.40
66831;DHT22;53739;44.224;22.528;2022-10-30T01:38:41;281.90;2278.40
66831;DHT22;53739;44.224;22.528;2022-10-30T01:41:08;281.90;2278.40
66831;DHT22;53739;44.224;22.528;2022-10-30T01:43:35;281.80;2278.40
66831;DHT22;53739;44.224;22.528;2022-10-30T01:52:01;281.70;2278.40
66831;DHT22;53739;44.224;22.528;2022-10-30T01:54:37;281.70;2278.40
66831;DHT22;53739;44.224;22.528;2022-10-30T02:00:00;281.80;2227.20
66831;DHT22;53739;44.224;22.528;2022-10-30T02:02:28;281.90;2201.60
66831;DHT22;53739;44.224;22.528;2022-10-30T02:04:54;282.00;2150.40
66831;DHT22;53739;44.224;22.528;2022-10-30T02:07:20;282.00;1996.80
66831;DHT22;53739;44.224;22.528;2022-10-30T02:09:46;282.00;2278.40
66831;DHT22;53739;44.224;22.528;2022-10-30T02:12:12;282.00;2201.60
66831;DHT22;53739;44.224;22.528;2022-10-30T02:14:42;281.80;2278.40
66831;DHT22;53739;44.224;22.528;2022-10-30T02:17:09;281.90;2124.80
66831;DHT22;53739;44.224;22.528;2022-10-30T02:19:36;281.90;2099.20
66831;DHT22;53739;44.224;22.528;2022-10-30T02:22:03;281.80;2278.40
66831;DHT22;53739;44.224;22.528;2022-10-30T02:24:30;281.80;2278.40
66831;DHT22;53739;44.224;22.528;2022-10-30T02:26:56;281.80;2278.40
66831;DHT22;53739;44.224;22.528;2022-10-30T02:29:22;281.80;2278.40
66831;DHT22;53739;44.224;22.528;2022-10-30T02:31:48;281.90;2278.40
66831;DHT22;53739;44.224;22.528;2022-10-30T02:34:15;281.80;2278.40
66831;DHT22;53739;44.224;22.528;2022-10-30T02:36:40;281.70;2278.40
66831;DHT22;53739;44.224;22.528;2022-10-30T02:39:07;281.80;2278.40
66831;DHT22;53739;44.224;22.528;2022-10-30T02:41:33;281.70;2278.40
66831;DHT22;53739;44.224;22.528;2022-10-30T02:43:58;281.60;2278.40
66831;DHT22;53739;44.224;22.528;2022-10-30T02:46:24;281.70;2278.40
66831;DHT22;53739;44.224;22.528;2022-10-30T02:48:50;281.60;2278.40
66831;DHT22;53739;44.224;22.528;2022-10-30T02:51:16;281.70;2278.40
66831;DHT22;53739;44.224;22.528;2022-10-30T02:53:42;281.80;2278.40
66831;DHT22;53739;44.224;22.528;2022-10-30T02:56:10;281.80;2278.40
66831;DHT22;53739;44.224;22.528;2022-10-30T02:58:37;281.70;2278.40
66831;DHT22;53739;44.224;22.528;2022-10-30T03:01:08;281.70;2278.40
66831;DHT22;53739;44.224;22.528;2022-10-30T03:03:34;281.70;2278.40
66831;DHT22;53739;44.224;22.528;2022-10-30T03:06:05;281.80;2278.40
66831;DHT22;53739;44.224;22.528;2022-10-30T03:08:32;281.80;2278.40
66831;DHT22;53739;44.224;22.528;2022-10-30T03:11:06;281.80;2278.40
66831;DHT22;53739;44.224;22.528;2022-10-30T03:13:33;281.90;2278.40
66831;DHT22;53739;44.224;22.528;2022-10-30T03:16:00;281.90;2278.40
66831;DHT22;53739;44.224;22.528;2022-10-30T03:18:26;282.00;2278.40
66831;DHT22;53739;44.224;22.528;2022-10-30T03:21:00;282.00;2278.40
66831;DHT22;53739;44.224;22.528;2022-10-30T03:23:27;282.00;2278.40
66831;DHT22;53739;44.224;22.528;2022-10-30T03:25:55;282.00;2278.40
66831;DHT22;53739;44.224;22.528;2022-10-30T03:28:23;281.90;2278.40
66831;DHT22;53739;44.224;22.528;2022-10-30T03:30:49;281.90;2278.40
66831;DHT22;53739;44.224;22.528;2022-10-30T03:33:16;281.90;2278.40
66831;DHT22;53739;44.224;22.528;2022-10-30T03:35:43;281.80;2278.40
66831;DHT22;53739;44.224;22.528;2022-10-30T03:38:12;281.70;2278.40
66831;DHT22;53739;44.224;22.528;2022-10-30T03:40:39;281.70;2278.40
66831;DHT22;53739;44.224;22.528;2022-10-30T03:43:05;281.60;2278.40
66831;DHT22;53739;44.224;22.528;2022-10-30T03:45:34;281.60;2278.40
66831;DHT22;53739;44.224;22.528;2022-10-30T03:48:01;281.60;2278.40
66831;DHT22;53739;44.224;22.528;2022-10-30T03:50:28;256.90;2252.80
66831;DHT22;53739;44.224;22.528;2022-10-30T03:52:54;256.90;2252.80
66831;DHT22;53739;44.224;22.528;2022-10-30T03:55:20;256.80;2252.80
66831;DHT22;53739;44.224;22.528;2022-10-30T03:57:46;256.90;2252.80
66831;DHT22;53739;44.224;22.528;2022-10-30T04:00:13;256.80;2252.80
66831;DHT22;53739;44.224;22.528;2022-10-30T04:02:43;256.80;2252.80
66831;DHT22;53739;44.224;22.528;2022-10-30T04:05:09;256.90;2252.80
66831;DHT22;53739;44.224;22.528;2022-10-30T04:07:34;256.90;2252.80
66831;DHT22;53739;44.224;22.528;2022-10-30T04:10:00;256.90;2252.80
66831;DHT22;53739;44.224;22.528;2022-10-30T04:12:26;256.80;2252.80
66831;DHT22;53739;44.224;22.528;2022-10-30T04:14:52;256.80;2252.80
66831;DHT22;53739;44.224;22.528;2022-10-30T04:17:18;256.80;2252.80
66831;DHT22;53739;44.224;22.528;2022-10-30T04:19:44;256.80;2252.80
66831;DHT22;53739;44.224;22.528;2022-10-30T04:22:10;256.70;2252.80
66831;DHT22;53739;44.224;22.528;2022-10-30T04:24:35;256.70;2252.80
66831;DHT22;53739;44.224;22.528;2022-10-30T04:27:04;256.80;2252.80
66831;DHT22;53739;44.224;22.528;2022-10-30T04:29:30;256.60;2252.80
66831;DHT22;53739;44.224;22.528;2022-10-30T04:31:56;256.50;2252.80
66831;DHT22;53739;44.224;22.528;2022-10-30T04:34:22;256.70;2252.80
66831;DHT22;53739;44.224;22.528;2022-10-30T04:36:47;256.60;2252.80
66831;DHT22;53739;44.224;22.528;2022-10-30T04:39:13;256.60;2252.80
66831;DHT22;53739;44.224;22.528;2022-10-30T04:41:39;256.70;2252.80
66831;DHT22;53739;44.224;22.528;2022-10-30T04:44:05;256.70;2252.80
66831;DHT22;53739;44.224;22.528;2022-10-30T04:46:31;256.70;2252.80
66831;DHT22;53739;44.224;22.528;2022-10-30T04:48:57;256.60;2252.80
66831;DHT22;53739;44.224;22.528;2022-10-30T04:51:23;256.70;2252.80
66831;DHT22;53739;44.224;22.528;2022-10-30T04:53:49;256.80;2252.80
66831;DHT22;53739;44.224;22.528;2022-10-30T04:56:15;256.80;2252.80
66831;DHT22;53739;44.224;22.528;2022-10-30T04:58:41;256.90;2252.80
66831;DHT22;53739;44.224;22.528;2022-10-30T05:01:07;256.90;2252.80
66831;DHT22;53739;44.224;22.528;2022-10-30T05:03:33;281.60;2278.40
66831;DHT22;53739;44.224;22.528;2022-10-30T05:06:10;281.70;2278.40
66831;DHT22;53739;44.224;22.528;2022-10-30T05:08:37;281.70;2278.40
66831;DHT22;53739;44.224;22.528;2022-10-30T05:11:04;281.90;2278.40
66831;DHT22;53739;44.224;22.528;2022-10-30T05:13:30;281.90;2278.40
66831;DHT22;53739;44.224;22.528;2022-10-30T05:15:56;282.00;2278.40
66831;DHT22;53739;44.224;22.528;2022-10-30T05:18:22;282.00;2278.40
66831;DHT22;53739;44.224;22.528;2022-10-30T05:20:47;281.90;2278.40
66831;DHT22;53739;44.224;22.528;2022-10-30T05:23:13;281.70;2278.40
66831;DHT22;53739;44.224;22.528;2022-10-30T05:25:39;281.80;2278.40
66831;DHT22;53739;44.224;22.528;2022-10-30T05:28:05;281.80;2278.40
66831;DHT22;53739;44.224;22.528;2022-10-30T05:30:33;281.80;2278.40
66831;DHT22;53739;44.224;22.528;2022-10-30T05:33:04;281.80;2278.40
66831;DHT22;53739;44.224;22.528;2022-10-30T05:35:32;281.80;2278.40
66831;DHT22;53739;44.224;22.528;2022-10-30T05:37:58;281.70;2278.40
66831;DHT22;53739;44.224;22.528;2022-10-30T05:40:25;281.80;2278.40
66831;DHT22;53739;44.224;22.528;2022-10-30T05:42:51;281.80;2278.40
66831;DHT22;53739;44.224;22.528;2022-10-30T05:45:17;281.90;2278.40
66831;DHT22;53739;44.224;22.528;2022-10-30T05:47:56;281.90;2278.40
66831;DHT22;53739;44.224;22.528;2022-10-30T05:50:23;282.00;2278.40
66831;DHT22;53739;44.224;22.528;2022-10-30T05:52:53;282.00;2278.40
66831;DHT22;53739;44.224;22.528;2022-10-30T05:55:19;282.00;2278.40
66831;DHT22;53739;44.224;22.528;2022-10-30T05:57:45;282.10;2278.40
66831;DHT22;53739;44.224;22.528;2022-10-30T06:00:11;282.20;2278.40
66831;DHT22;53739;44.224;22.528;2022-10-30T06:02:37;282.30;2278.40
66831;DHT22;53739;44.224;22.528;2022-10-30T06:05:03;282.30;2278.40
66831;DHT22;53739;44.224;22.528;2022-10-30T06:07:29;282.40;2278.40
66831;DHT22;53739;44.224;22.528;2022-10-30T06:09:55;282.40;2278.40
66831;DHT22;53739;44.224;22.528;2022-10-30T06:12:21;282.50;2278.40
66831;DHT22;53739;44.224;22.528;2022-10-30T06:14:46;307.20;2304.00
66831;DHT22;53739;44.224;22.528;2022-10-30T06:17:12;307.30;2304.00
66831;DHT22;53739;44.224;22.528;2022-10-30T06:22:30;307.50;2304.00
66831;DHT22;53739;44.224;22.528;2022-10-30T06:24:55;307.70;2073.60
66831;DHT22;53739;44.224;22.528;2022-10-30T06:27:21;307.90;2304.00
66831;DHT22;53739;44.224;22.528;2022-10-30T06:29:47;308.10;2304.00
66831;DHT22;53739;44.224;22.528;2022-10-30T06:32:19;332.80;2329.60
66831;DHT22;53739;44.224;22.528;2022-10-30T06:34:45;333.00;2329.60
66831;DHT22;53739;44.224;22.528;2022-10-30T06:37:11;333.20;2329.60
66831;DHT22;53739;44.224;22.528;2022-10-30T06:39:37;333.40;2329.60
66831;DHT22;53739;44.224;22.528;2022-10-30T06:42:03;333.50;2329.60
66831;DHT22;53739;44.224;22.528;2022-10-30T06:44:29;333.70;2329.60
66831;DHT22;53739;44.224;22.528;2022-10-30T06:46:55;358.50;2329.60
66831;DHT22;53739;44.224;22.528;2022-10-30T06:49:21;358.70;2329.60
66831;DHT22;53739;44.224;22.528;2022-10-30T06:51:47;359.00;2329.60
66831;DHT22;53739;44.224;22.528;2022-10-30T06:54:15;359.10;2329.60
66831;DHT22;53739;44.224;22.528;2022-10-30T06:56:41;359.30;2329.60
66831;DHT22;53739;44.224;22.528;2022-10-30T06:59:07;384.20;2329.60
66831;DHT22;53739;44.224;22.528;2022-10-30T07:01:34;384.40;2329.60
66831;DHT22;53739;44.224;22.528;2022-10-30T07:04:00;384.90;2329.60
66831;DHT22;53739;44.224;22.528;2022-10-30T07:06:26;409.80;2355.20
66831;DHT22;53739;44.224;22.528;2022-10-30T07:08:52;410.20;2355.20
66831;DHT22;53739;44.224;22.528;2022-10-30T07:11:18;435.20;2355.20
66831;DHT22;53739;44.224;22.528;2022-10-30T07:13:44;435.60;2355.20
66831;DHT22;53739;44.224;22.528;2022-10-30T07:16:10;435.90;2355.20
66831;DHT22;53739;44.224;22.528;2022-10-30T07:18:37;436.00;2355.20
66831;DHT22;53739;44.224;22.528;2022-10-30T07:21:03;436.00;2355.20
66831;DHT22;53739;44.224;22.528;2022-10-30T07:23:29;436.10;2355.20
66831;DHT22;53739;44.224;22.528;2022-10-30T07:25:55;436.10;2355.20
66831;DHT22;53739;44.224;22.528;2022-10-30T07:28:21;436.10;2355.20
66831;DHT22;53739;44.224;22.528;2022-10-30T07:30:47;460.80;2380.80
66831;DHT22;53739;44.224;22.528;2022-10-30T07:33:13;460.90;2380.80
66831;DHT22;53739;44.224;22.528;2022-10-30T07:35:39;460.90;2380.80
66831;DHT22;53739;44.224;22.528;2022-10-30T07:38:08;460.90;2380.80
66831;DHT22;53739;44.224;22.528;2022-10-30T07:40:35;461.00;2380.80
66831;DHT22;53739;44.224;22.528;2022-10-30T07:43:03;461.10;2380.80
66831;DHT22;53739;44.224;22.528;2022-10-30T07:45:30;461.20;2380.80
66831;DHT22;53739;44.224;22.528;2022-10-30T07:47:56;461.40;2380.80
66831;DHT22;53739;44.224;22.528;2022-10-30T07:50:22;461.60;2380.80
66831;DHT22;53739;44.224;22.528;2022-10-30T07:52:49;486.40;2380.80
66831;DHT22;53739;44.224;22.528;2022-10-30T07:55:15;486.50;2380.80
66831;DHT22;53739;44.224;22.528;2022-10-30T07:57:41;486.60;2380.80
66831;DHT22;53739;44.224;22.528;2022-10-30T08:00:10;486.80;2380.80
66831;DHT22;53739;44.224;22.528;2022-10-30T08:02:36;487.00;2380.80
66831;DHT22;53739;44.224;22.528;2022-10-30T08:05:04;487.10;2380.80
66831;DHT22;53739;44.224;22.528;2022-10-30T08:07:31;487.30;2380.80
66831;DHT22;53739;44.224;22.528;2022-10-30T08:09:58;512.00;2380.80
66831;DHT22;53739;44.224;22.528;2022-10-30T08:12:25;512.00;2380.80
66831;DHT22;53739;44.224;22.528;2022-10-30T08:14:54;512.00;2380.80
66831;DHT22;53739;44.224;22.528;2022-10-30T08:17:20;512.20;2380.80
66831;DHT22;53739;44.224;22.528;2022-10-30T08:19:47;512.30;2380.80
66831;DHT22;53739;44.224;22.528;2022-10-30T08:22:51;512.40;2380.80
66831;DHT22;53739;44.224;22.528;2022-10-30T08:25:43;512.60;2380.80
66831;DHT22;53739;44.224;22.528;2022-10-30T08:28:12;512.70;2380.80
66831;DHT22;53739;44.224;22.528;2022-10-30T08:30:45;512.90;2380.80
66831;DHT22;53739;44.224;22.528;2022-10-30T08:33:12;512.90;2304.00
66831;DHT22;53739;44.224;22.528;2022-10-30T08:35:45;537.70;2124.80
66831;DHT22;53739;44.224;22.528;2022-10-30T08:38:11;537.90;1920.00
66831;DHT22;53739;44.224;22.528;2022-10-30T08:40:37;538.00;2022.40
66831;DHT22;53739;44.224;22.528;2022-10-30T08:43:03;538.30;1868.80
66831;DHT22;53739;44.224;22.528;2022-10-30T08:45:29;538.40;1894.40
66831;DHT22;53739;44.224;22.528;2022-10-30T08:47:59;563.20;1766.40
66831;DHT22;53739;44.224;22.528;2022-10-30T08:50:29;563.20;1715.20
66831;DHT22;53739;44.224;22.528;2022-10-30T08:52:55;563.50;1664.00
66831;DHT22;53739;44.224;22.528;2022-10-30T08:55:36;563.60;1510.40
66831;DHT22;53739;44.224;22.528;2022-10-30T08:58:11;563.60;1484.80
66831;DHT22;53739;44.224;22.528;2022-10-30T09:00:37;563.80;1356.80
66831;DHT22;53739;44.224;22.528;2022-10-30T09:03:16;563.70;1356.80
66831;DHT22;53739;44.224;22.528;2022-10-30T09:05:45;563.90;1228.80
66831;DHT22;53739;44.224;22.528;2022-10-30T09:08:14;563.90;1254.40
66831;DHT22;53739;44.224;22.528;2022-10-30T09:10:40;564.00;1152.00
66831;DHT22;53739;44.224;22.528;2022-10-30T09:13:18;564.00;1177.60
66831;DHT22;53739;44.224;22.528;2022-10-30T09:16:05;588.80;1177.60
66831;DHT22;53739;44.224;22.528;2022-10-30T09:18:36;588.90;1075.20
66831;DHT22;53739;44.224;22.528;2022-10-30T09:21:08;588.90;1075.20
66831;DHT22;53739;44.224;22.528;2022-10-30T09:23:40;588.90;972.80
66831;DHT22;53739;44.224;22.528;2022-10-30T09:26:24;589.00;1024.00
66831;DHT22;53739;44.224;22.528;2022-10-30T09:29:08;589.00;998.40
66831;DHT22;53739;44.224;22.528;2022-10-30T09:31:39;589.10;972.80
66831;DHT22;53739;44.224;22.528;2022-10-30T09:34:19;589.20;998.40
66831;DHT22;53739;44.224;22.528;2022-10-30T09:36:57;589.40;921.60
66831;DHT22;53739;44.224;22.528;2022-10-30T09:39:23;589.40;921.60
66831;DHT22;53739;44.224;22.528;2022-10-30T09:42:16;589.40;870.40
66831;DHT22;53739;44.224;22.528;2022-10-30T09:47:21;589.20;844.80
66831;DHT22;53739;44.224;22.528;2022-10-30T09:53:07;589.20;768.00
66831;DHT22;53739;44.224;22.528;2022-10-30T09:55:50;589.30;819.20
66831;DHT22;53739;44.224;22.528;2022-10-30T09:58:41;589.40;844.80
66831;DHT22;53739;44.224;22.528;2022-10-30T10:04:04;589.70;870.40
66831;DHT22;53739;44.224;22.528;2022-10-30T10:06:37;614.40;716.80
66831;DHT22;53739;44.224;22.528;2022-10-30T10:09:18;614.40;716.80
66831;DHT22;53739;44.224;22.528;2022-10-30T10:11:53;614.40;742.40
66831;DHT22;53739;44.224;22.528;2022-10-30T10:14:34;614.50;665.60
66831;DHT22;53739;44.224;22.528;2022-10-30T10:17:04;614.60;691.20
66831;DHT22;53739;44.224;22.528;2022-10-30T10:19:39;614.70;665.60
66831;DHT22;53739;44.224;22.528;2022-10-30T10:22:20;614.70;742.40
66831;DHT22;53739;44.224;22.528;2022-10-30T10:24:46;614.90;665.60
66831;DHT22;53739;44.224;22.528;2022-10-30T10:27:17;615.10;665.60
66831;DHT22;53739;44.224;22.528;2022-10-30T10:35:00;615.20;614.40
66831;DHT22;53739;44.224;22.528;2022-10-30T10:37:30;615.30;614.40
66831;DHT22;53739;44.224;22.528;2022-10-30T10:43:28;615.10;614.40
66831;DHT22;53739;44.224;22.528;2022-10-30T10:49:01;640.10;691.20
66831;DHT22;53739;44.224;22.528;2022-10-30T10:54:34;615.20;537.60
66831;DHT22;53739;44.224;22.528;2022-10-30T10:57:04;615.00;563.20
66831;DHT22;53739;44.224;22.528;2022-10-30T10:59:36;615.00;640.00
66831;DHT22;53739;44.224;22.528;2022-10-30T11:04:51;614.90;512.00
66831;DHT22;53739;44.224;22.528;2022-10-30T11:07:22;615.00;512.00
66831;DHT22;53739;44.224;22.528;2022-10-30T11:09:55;615.10;537.60
66831;DHT22;53739;44.224;22.528;2022-10-30T11:12:35;640.20;409.60
66831;DHT22;53739;44.224;22.528;2022-10-30T11:17:56;640.90;384.00
66831;DHT22;53739;44.224;22.528;2022-10-30T11:23:39;640.90;358.40
66831;DHT22;53739;44.224;22.528;2022-10-30T11:36:48;640.10;332.80
66831;DHT22;53739;44.224;22.528;2022-10-30T11:39:19;640.10;435.20
66831;DHT22;53739;44.224;22.528;2022-10-30T11:42:17;640.10;435.20
66831;DHT22;53739;44.224;22.528;2022-10-30T11:44:55;640.50;384.00
66831;DHT22;53739;44.224;22.528;2022-10-30T11:47:42;640.60;384.00
66831;DHT22;53739;44.224;22.528;2022-10-30T11:50:25;640.70;256.00
66831;DHT22;53739;44.224;22.528;2022-10-30T11:56:15;665.70;281.60
66831;DHT22;53739;44.224;22.528;2022-10-30T11:58:54;666.20;307.20
66831;DHT22;53739;44.224;22.528;2022-10-30T12:03:58;666.30;281.60
66831;DHT22;53739;44.224;22.528;2022-10-30T12:06:38;666.20;204.80
66831;DHT22;53739;44.224;22.528;2022-10-30T12:09:24;666.30;230.40
66831;DHT22;53739;44.224;22.528;2022-10-30T12:11:50;666.50;230.40
66831;DHT22;53739;44.224;22.528;2022-10-30T12:14:20;666.50;153.60
66831;DHT22;53739;44.224;22.528;2022-10-30T12:16:54;691.20;153.60
66831;DHT22;53739;44.224;22.528;2022-10-30T12:19:27;691.20;153.60
66831;DHT22;53739;44.224;22.528;2022-10-30T12:21:55;691.40;153.60
66831;DHT22;53739;44.224;22.528;2022-10-30T12:24:34;691.60;153.60
66831;DHT22;53739;44.224;22.528;2022-10-30T12:27:16;691.60;153.60
66831;DHT22;53739;44.224;22.528;2022-10-30T12:33:03;691.80;153.60
66831;DHT22;53739;44.224;22.528;2022-10-30T12:49:46;666.50;153.60
66831;DHT22;53739;44.224;22.528;2022-10-30T12:52:39;666.50;153.60
66831;DHT22;53739;44.224;22.528;2022-10-30T12:55:22;666.30;153.60
66831;DHT22;53739;44.224;22.528;2022-10-30T13:01:10;665.80;153.60
66831;DHT22;53739;44.224;22.528;2022-10-30T13:03:47;665.60;153.60
66831;DHT22;53739;44.224;22.528;2022-10-30T13:06:18;665.60;153.60
66831;DHT22;53739;44.224;22.528;2022-10-30T13:11:55;640.60;128.00
66831;DHT22;53739;44.224;22.528;2022-10-30T13:17:02;640.50;128.00
66831;DHT22;53739;44.224;22.528;2022-10-30T13:19:28;640.40;128.00
66831;DHT22;53739;44.224;22.528;2022-10-30T13:22:44;640.20;128.00
66831;DHT22;53739;44.224;22.528;2022-10-30T13:28:28;615.20;128.00
66831;DHT22;53739;44.224;22.528;2022-10-30T13:33:41;615.10;128.00
66831;DHT22;53739;44.224;22.528;2022-10-30T13:36:16;615.20;128.00
66831;DHT22;53739;44.224;22.528;2022-10-30T13:39:10;615.20;128.00
66831;DHT22;53739;44.224;22.528;2022-10-30T13:42:01;615.20;128.00
66831;DHT22;53739;44.224;22.528;2022-10-30T13:53:20;615.30;128.00
66831;DHT22;53739;44.224;22.528;2022-10-30T13:55:47;615.20;128.00
66831;DHT22;53739;44.224;22.528;2022-10-30T13:58:27;615.10;128.00
66831;DHT22;53739;44.224;22.528;2022-10-30T14:01:21;615.10;128.00
66831;DHT22;53739;44.224;22.528;2022-10-30T14:04:05;615.10;128.00
66831;DHT22;53739;44.224;22.528;2022-10-30T14:06:46;615.00;128.00
66831;DHT22;53739;44.224;22.528;2022-10-30T14:12:43;614.80;128.00
66831;DHT22;53739;44.224;22.528;2022-10-30T14:15:41;614.80;128.00
66831;DHT22;53739;44.224;22.528;2022-10-30T14:20:43;614.60;128.00
66831;DHT22;53739;44.224;22.528;2022-10-30T14:23:34;614.60;128.00
66831;DHT22;53739;44.224;22.528;2022-10-30T14:28:27;614.60;128.00
66831;DHT22;53739;44.224;22.528;2022-10-30T14:31:03;614.50;128.00
66831;DHT22;53739;44.224;22.528;2022-10-30T14:33:56;614.50;128.00
66831;DHT22;53739;44.224;22.528;2022-10-30T14:36:46;614.40;128.00
66831;DHT22;53739;44.224;22.528;2022-10-30T14:41:52;589.60;128.00
66831;DHT22;53739;44.224;22.528;2022-10-30T14:58:40;589.10;128.00
66831;DHT22;53739;44.224;22.528;2022-10-30T15:01:27;589.00;153.60
66831;DHT22;53739;44.224;22.528;2022-10-30T15:04:16;588.90;128.00
66831;DHT22;53739;44.224;22.528;2022-10-30T15:07:25;588.90;128.00
66831;DHT22;53739;44.224;22.528;2022-10-30T15:12:59;564.10;179.20
66831;DHT22;53739;44.224;22.528;2022-10-30T15:15:28;564.00;153.60
66831;DHT22;53739;44.224;22.528;2022-10-30T15:18:02;564.00;153.60
66831;DHT22;53739;44.224;22.528;2022-10-30T15:20:32;563.90;179.20
66831;DHT22;53739;44.224;22.528;2022-10-30T15:23:14;563.90;179.20
66831;DHT22;53739;44.224;22.528;2022-10-30T15:25:48;563.80;179.20
66831;DHT22;53739;44.224;22.528;2022-10-30T15:28:27;563.70;204.80
66831;DHT22;53739;44.224;22.528;2022-10-30T15:33:36;563.70;230.40
66831;DHT22;53739;44.224;22.528;2022-10-30T15:36:03;563.60;256.00
66831;DHT22;53739;44.224;22.528;2022-10-30T15:38:29;563.60;256.00
66831;DHT22;53739;44.224;22.528;2022-10-30T15:41:00;563.50;281.60
66831;DHT22;53739;44.224;22.528;2022-10-30T15:43:32;563.50;281.60
66831;DHT22;53739;44.224;22.528;2022-10-30T15:45:58;563.50;281.60
66831;DHT22;53739;44.224;22.528;2022-10-30T15:48:27;563.40;307.20
66831;DHT22;53739;44.224;22.528;2022-10-30T15:51:00;563.40;307.20
66831;DHT22;53739;44.224;22.528;2022-10-30T15:59:04;563.30;358.40
66831;DHT22;53739;44.224;22.528;2022-10-30T16:01:31;538.50;358.40
66831;DHT22;53739;44.224;22.528;2022-10-30T16:03:59;538.50;358.40
66831;DHT22;53739;44.224;22.528;2022-10-30T16:06:30;538.50;384.00
66831;DHT22;53739;44.224;22.528;2022-10-30T16:08:56;538.50;409.60
66831;DHT22;53739;44.224;22.528;2022-10-30T16:11:23;538.30;435.20
66831;DHT22;53739;44.224;22.528;2022-10-30T16:13:56;538.30;460.80
66831;DHT22;53739;44.224;22.528;2022-10-30T16:16:27;538.30;435.20
66831;DHT22;53739;44.224;22.528;2022-10-30T16:18:57;538.20;460.80
66831;DHT22;53739;44.224;22.528;2022-10-30T16:21:25;538.20;460.80
66831;DHT22;53739;44.224;22.528;2022-10-30T16:24:00;538.20;512.00
66831;DHT22;53739;44.224;22.528;2022-10-30T16:26:38;538.10;537.60
66831;DHT22;53739;44.224;22.528;2022-10-30T16:31:40;538.00;563.20
66831;DHT22;53739;44.224;22.528;2022-10-30T16:34:15;538.00;563.20
66831;DHT22;53739;44.224;22.528;2022-10-30T16:36:43;538.00;588.80
66831;DHT22;53739;44.224;22.528;2022-10-30T16:39:14;538.00;588.80
66831;DHT22;53739;44.224;22.528;2022-10-30T16:41:42;537.90;614.40
66831;DHT22;53739;44.224;22.528;2022-10-30T16:46:42;537.90;640.00
66831;DHT22;53739;44.224;22.528;2022-10-30T16:49:13;537.70;665.60
66831;DHT22;53739;44.224;22.528;2022-10-30T16:51:41;537.60;691.20
66831;DHT22;53739;44.224;22.528;2022-10-30T16:54:37;537.60;691.20
66831;DHT22;53739;44.224;22.528;2022-10-30T16:57:14;537.60;691.20
66831;DHT22;53739;44.224;22.528;2022-10-30T16:59:48;537.60;691.20
66831;DHT22;53739;44.224;22.528;2022-10-30T17:02:24;512.90;691.20
66831;DHT22;53739;44.224;22.528;2022-10-30T17:04:54;512.90;665.60
66831;DHT22;53739;44.224;22.528;2022-10-30T17:07:23;512.90;665.60
66831;DHT22;53739;44.224;22.528;2022-10-30T17:09:57;512.80;691.20
66831;DHT22;53739;44.224;22.528;2022-10-30T17:12:24;512.80;691.20
66831;DHT22;53739;44.224;22.528;2022-10-30T17:18:07;512.70;716.80
66831;DHT22;53739;44.224;22.528;2022-10-30T17:20:26;512.70;742.40
66831;DHT22;53739;44.224;22.528;2022-10-30T17:23:14;512.60;742.40
66831;DHT22;53739;44.224;22.528;2022-10-30T17:25:41;512.50;793.60
66831;DHT22;53739;44.224;22.528;2022-10-30T17:28:27;512.50;793.60
66831;DHT22;53739;44.224;22.528;2022-10-30T17:30:54;512.50;768.00
66831;DHT22;53739;44.224;22.528;2022-10-30T17:33:36;512.50;793.60
66831;DHT22;53739;44.224;22.528;2022-10-30T17:36:03;512.40;793.60
66831;DHT22;53739;44.224;22.528;2022-10-30T17:38:29;512.40;793.60
66831;DHT22;53739;44.224;22.528;2022-10-30T17:40:55;512.30;819.20
66831;DHT22;53739;44.224;22.528;2022-10-30T17:43:26;512.30;793.60
66831;DHT22;53739;44.224;22.528;2022-10-30T17:45:52;512.30;793.60